createdAt,value
2019-04-19T00:00:26.464Z,0
2019-04-19T00:02:07.459Z,0
2019-04-19T00:03:42.305Z,0
2019-04-19T00:05:11.221Z,0
2019-04-19T00:06:42.393Z,0
2019-04-19T00:09:08.849Z,0
2019-04-19T00:11:31.348Z,0
2019-04-19T00:13:09.433Z,0
2019-04-19T00:14:23.482Z,0
2019-04-19T00:15:35.686Z,0
2019-04-19T00:16:49.387Z,0
2019-04-19T00:18:20.004Z,0
2019-04-19T00:21:12.092Z,0
2019-04-19T00:23:38.251Z,0
2019-04-19T00:24:57.183Z,0
2019-04-19T00:26:09.102Z,0
2019-04-19T00:27:24.675Z,0
2019-04-19T00:29:25.616Z,0
2019-04-19T00:31:47.616Z,0
2019-04-19T00:33:53.960Z,0
2019-04-19T00:35:09.405Z,0
2019-04-19T00:36:23.852Z,0
2019-04-19T00:37:36.524Z,0
2019-04-19T00:39:55.567Z,0
2019-04-19T00:43:02.735Z,0
2019-04-19T00:46:04.181Z,0
2019-04-19T00:48:51.188Z,0
2019-04-19T00:51:17.157Z,0
2019-04-19T00:53:45.282Z,0
2019-04-19T00:55:59.623Z,0
2019-04-19T00:57:58.613Z,0
2019-04-19T00:59:39.268Z,0
2019-04-19T01:01:23.118Z,0
2019-04-19T01:03:01.385Z,0
2019-04-19T01:04:32.847Z,0
2019-04-19T01:06:17.156Z,0
2019-04-19T01:07:47.395Z,0
2019-04-19T01:09:49.597Z,0
2019-04-19T01:12:28.706Z,0
2019-04-19T01:15:03.444Z,0
2019-04-19T01:17:33.167Z,0
2019-04-19T01:19:24.270Z,0
2019-04-19T01:20:37.279Z,0
2019-04-19T01:21:47.680Z,0
2019-04-19T01:23:20.039Z,0
2019-04-19T01:24:51.192Z,0
2019-04-19T01:26:18.625Z,0
2019-04-19T01:27:42.300Z,0
2019-04-19T01:29:17.126Z,0
2019-04-19T01:30:48.036Z,0
2019-04-19T01:32:21.074Z,0
2019-04-19T01:33:49.139Z,0
2019-04-19T01:35:21.772Z,0
2019-04-19T01:36:51.812Z,0
2019-04-19T01:38:16.969Z,0
2019-04-19T01:40:32.904Z,0
2019-04-19T01:43:34.238Z,0
2019-04-19T01:46:20.391Z,0
2019-04-19T01:49:09.351Z,0
2019-04-19T01:52:02.269Z,0
2019-04-19T01:55:06.633Z,0
2019-04-19T01:56:30.574Z,0
2019-04-19T01:57:41.448Z,0
2019-04-19T01:59:07.837Z,0
2019-04-19T02:00:46.441Z,0
2019-04-19T02:02:25.797Z,0
2019-04-19T02:03:55.846Z,0
2019-04-19T02:05:23.869Z,0
2019-04-19T02:06:51.522Z,0
2019-04-19T02:08:17.902Z,0
2019-04-19T02:10:27.253Z,0
2019-04-19T02:12:51.182Z,0
2019-04-19T02:14:58.985Z,0
2019-04-19T02:16:33.280Z,0
2019-04-19T02:17:57.085Z,0
2019-04-19T02:19:31.825Z,0
2019-04-19T02:20:58.079Z,0
2019-04-19T02:22:36.744Z,0
2019-04-19T02:24:07.081Z,0
2019-04-19T02:25:33.913Z,0
2019-04-19T02:27:10.005Z,0
2019-04-19T02:28:44.506Z,0
2019-04-19T02:30:46.185Z,0
2019-04-19T02:34:21.041Z,0
2019-04-19T02:38:20.860Z,0
2019-04-19T02:42:30.235Z,0
2019-04-19T02:46:49.701Z,0
2019-04-19T02:51:15.570Z,0
2019-04-19T02:55:13.563Z,0
2019-04-19T03:04:13.750Z,0
2019-04-19T03:06:54.231Z,0
2019-04-19T03:08:12.817Z,0
2019-04-19T03:09:36.200Z,0
2019-04-19T03:11:55.902Z,0
2019-04-19T03:14:45.045Z,0
2019-04-19T03:17:50.438Z,0
2019-04-19T03:20:42.326Z,0
2019-04-19T03:23:25.670Z,0
2019-04-19T03:26:07.054Z,4
2019-04-19T03:28:38.311Z,0
2019-04-19T03:31:40.640Z,4
2019-04-19T03:35:43.162Z,4
2019-04-19T03:38:42.563Z,12
2019-04-19T03:42:11.478Z,20
2019-04-19T03:45:17.278Z,36
2019-04-19T03:48:43.536Z,60
2019-04-19T03:52:25.764Z,104
2019-04-19T03:55:18.759Z,156
2019-04-19T03:58:03.074Z,216
2019-04-19T03:59:24.456Z,256
2019-04-19T04:00:36.672Z,288
2019-04-19T04:02:02.892Z,332
2019-04-19T04:03:46.111Z,388
2019-04-19T04:05:17.942Z,440
2019-04-19T04:06:46.157Z,500
2019-04-19T04:08:24.058Z,568
2019-04-19T04:10:01.054Z,636
2019-04-19T04:11:31.459Z,700
2019-04-19T04:13:37.052Z,796
2019-04-19T04:16:07.529Z,916
2019-04-19T04:17:35.276Z,1000
2019-04-19T04:18:47.033Z,1060
2019-04-19T04:19:57.094Z,1124
2019-04-19T04:21:12.613Z,1192
2019-04-19T04:22:46.493Z,1276
2019-04-19T04:24:40.262Z,1376
2019-04-19T04:26:48.263Z,1484
2019-04-19T04:29:11.938Z,1620
2019-04-19T04:31:26.206Z,1744
2019-04-19T04:33:54.427Z,1880
2019-04-19T04:36:44.950Z,2024
2019-04-19T04:38:47.544Z,2144
2019-04-19T04:40:02.153Z,2208
2019-04-19T04:41:32.495Z,2284
2019-04-19T04:43:43.254Z,2380
2019-04-19T04:47:14.570Z,2540
2019-04-19T04:50:36.792Z,2696
2019-04-19T04:52:45.913Z,2804
2019-04-19T04:54:01.972Z,2860
2019-04-19T04:55:13.436Z,2908
2019-04-19T04:56:44.070Z,2960
2019-04-19T04:58:35.703Z,3040
2019-04-19T05:00:06.214Z,3100
2019-04-19T05:02:03.377Z,3176
2019-04-19T05:04:37.438Z,3268
2019-04-19T05:07:32.533Z,3368
2019-04-19T05:10:39.241Z,3476
2019-04-19T05:14:00.183Z,3580
2019-04-19T05:17:45.778Z,3696
2019-04-19T05:20:47.917Z,3792
2019-04-19T05:23:37.335Z,3872
2019-04-19T05:27:14.607Z,3972
2019-04-19T05:29:46.210Z,4048
2019-04-19T05:31:35.436Z,4092
2019-04-19T05:33:51.284Z,4148
2019-04-19T05:36:57.203Z,4220
2019-04-19T05:40:15.040Z,4296
2019-04-19T05:43:02.082Z,4360
2019-04-19T05:46:58.201Z,4448
2019-04-19T05:49:32.350Z,4496
2019-04-19T05:52:51.224Z,4564
2019-04-19T05:54:25.601Z,4600
2019-04-19T05:55:35.331Z,4624
2019-04-19T05:57:35.717Z,4656
2019-04-19T05:59:59.289Z,4704
2019-04-19T06:02:34.969Z,4748
2019-04-19T06:05:48.342Z,4804
2019-04-19T06:08:26.400Z,4864
2019-04-19T06:09:43.743Z,4896
2019-04-19T06:11:09.488Z,4940
2019-04-19T06:12:43.965Z,4980
2019-04-19T06:15:53.763Z,5032
2019-04-19T06:18:38.623Z,5072
2019-04-19T06:21:42.346Z,5108
2019-04-19T06:24:42.252Z,5152
2019-04-19T06:28:22.363Z,5200
2019-04-19T06:31:49.916Z,5252
2019-04-19T06:35:01.223Z,5296
2019-04-19T06:36:35.304Z,5380
2019-04-19T06:37:48.595Z,5464
2019-04-19T06:39:00.008Z,5544
2019-04-19T06:40:37.913Z,5656
2019-04-19T06:42:24.278Z,5776
2019-04-19T06:45:02.763Z,5984
2019-04-19T06:47:30.074Z,6252
2019-04-19T06:49:21.917Z,6424
2019-04-19T06:50:57.958Z,6536
2019-04-19T06:52:41.229Z,6624
2019-04-19T06:54:13.621Z,6748
2019-04-19T06:56:04.635Z,7352
2019-04-19T06:58:07.297Z,8292
2019-04-19T07:00:40.883Z,9360
2019-04-19T07:02:14.021Z,8884
2019-04-19T07:03:27.683Z,7712
2019-04-19T07:05:18.287Z,7044
2019-04-19T07:08:48.626Z,6660
2019-04-19T07:12:23.485Z,6604
2019-04-19T07:14:33.187Z,6600
2019-04-19T07:17:24.858Z,6608
2019-04-19T07:20:19.581Z,6620
2019-04-19T07:23:02.192Z,6620
2019-04-19T07:26:33.122Z,6620
2019-04-19T07:28:37.146Z,6632
2019-04-19T07:30:03.166Z,6636
2019-04-19T07:31:24.167Z,6640
2019-04-19T07:33:07.166Z,6652
2019-04-19T07:36:00.317Z,6656
2019-04-19T07:39:13.156Z,6688
2019-04-19T07:42:38.643Z,6724
2019-04-19T07:44:58.157Z,6744
2019-04-19T07:47:26.042Z,6772
2019-04-19T07:48:53.388Z,6792
2019-04-19T07:50:42.258Z,6812
2019-04-19T07:54:28.789Z,6868
2019-04-19T08:13:48.321Z,7184
2019-04-19T08:27:21.565Z,7600
2019-04-19T08:29:43.651Z,7704
2019-04-19T08:31:20.792Z,7808
2019-04-19T08:32:31.053Z,7888
2019-04-19T08:33:47.177Z,7972
2019-04-19T08:35:17.736Z,8088
2019-04-19T08:37:03.548Z,8280
2019-04-19T08:38:41.402Z,8624
2019-04-19T08:41:46.045Z,9824
2019-04-19T08:44:45.963Z,11632
2019-04-19T08:46:11.867Z,11328
2019-04-19T08:47:59.114Z,11308
2019-04-19T08:49:48.149Z,11272
2019-04-19T08:51:06.234Z,11200
2019-04-19T08:52:38.352Z,11120
2019-04-19T08:55:28.667Z,11108
2019-04-19T08:57:32.602Z,11052
2019-04-19T09:00:16.248Z,11032
2019-04-19T09:03:19.081Z,11056
2019-04-19T09:11:01.215Z,11444
2019-04-19T09:14:24.176Z,11768
2019-04-19T09:18:12.595Z,11972
2019-04-19T09:21:27.237Z,12244
2019-04-19T09:23:57.205Z,12520
2019-04-19T09:26:23.320Z,12712
2019-04-19T09:29:44.826Z,12956
2019-04-19T09:32:15.174Z,13320
2019-04-19T09:33:52.923Z,13472
2019-04-19T09:35:25.585Z,13860
2019-04-19T09:37:38.284Z,14384
2019-04-19T09:40:11.430Z,14912
2019-04-19T09:42:13.590Z,15520
2019-04-19T09:44:30.693Z,16064
2019-04-19T09:45:53.723Z,16096
2019-04-19T09:47:12.061Z,16192
2019-04-19T09:49:37.522Z,16192
2019-04-19T09:52:46.852Z,16032
2019-04-19T09:56:11.208Z,15908
2019-04-19T09:59:02.649Z,16192
2019-04-19T10:00:38.581Z,16144
2019-04-19T10:02:08.367Z,16704
2019-04-19T10:03:59.868Z,17536
2019-04-19T10:05:15.057Z,17888
2019-04-19T10:06:26.690Z,18304
2019-04-19T10:07:37.412Z,18592
2019-04-19T10:08:51.808Z,18944
2019-04-19T10:10:18.830Z,19776
2019-04-19T10:11:30.707Z,20864
2019-04-19T10:12:43.336Z,21440
2019-04-19T10:13:56.061Z,21568
2019-04-19T10:15:06.587Z,22720
2019-04-19T10:16:19.020Z,23104
2019-04-19T10:17:31.098Z,24640
2019-04-19T10:19:10.019Z,24448
2019-04-19T10:20:22.993Z,24960
2019-04-19T10:21:45.752Z,25088
2019-04-19T10:23:02.504Z,25536
2019-04-19T10:24:27.651Z,24896
2019-04-19T10:25:54.766Z,25888
2019-04-19T10:27:16.889Z,27648
2019-04-19T10:28:32.572Z,28416
2019-04-19T10:29:53.323Z,28480
2019-04-19T10:31:03.983Z,28256
2019-04-19T10:32:17.177Z,29824
2019-04-19T10:34:00.081Z,30496
2019-04-19T10:35:15.392Z,31744
2019-04-19T10:36:26.445Z,31264
2019-04-19T10:37:38.101Z,31264
2019-04-19T10:38:48.576Z,33536
2019-04-19T10:40:06.297Z,33728
2019-04-19T10:41:19.461Z,33376
2019-04-19T10:42:31.738Z,32896
2019-04-19T10:43:58.442Z,33056
2019-04-19T10:45:23.836Z,35552
2019-04-19T10:46:34.130Z,36288
2019-04-19T10:47:45.934Z,34592
2019-04-19T10:49:40.677Z,36608
2019-04-19T10:51:04.584Z,37216
2019-04-19T10:52:17.970Z,35360
2019-04-19T10:53:30.274Z,37792
2019-04-19T10:54:41.249Z,41408
2019-04-19T10:55:52.253Z,41408
2019-04-19T10:57:04.482Z,40320
2019-04-19T10:58:17.376Z,41440
2019-04-19T10:59:27.460Z,41568
2019-04-19T11:00:39.919Z,40672
2019-04-19T11:01:52.141Z,41856
2019-04-19T11:03:06.423Z,42848
2019-04-19T11:04:17.758Z,42944
2019-04-19T11:05:29.315Z,45216
2019-04-19T11:06:40.182Z,44800
2019-04-19T11:07:52.194Z,44992
2019-04-19T11:09:04.545Z,42720
2019-04-19T11:10:16.077Z,42656
2019-04-19T11:11:29.990Z,46464
2019-04-19T11:12:40.973Z,46240
2019-04-19T11:13:52.437Z,46112
2019-04-19T11:15:06.503Z,48032
2019-04-19T11:16:17.710Z,50016
2019-04-19T11:17:30.151Z,50272
2019-04-19T11:18:43.526Z,50624
2019-04-19T11:20:46.981Z,49280
2019-04-19T11:22:01.831Z,49120
2019-04-19T11:23:13.816Z,48192
2019-04-19T11:24:25.989Z,50496
2019-04-19T11:25:38.205Z,49792
2019-04-19T11:26:53.476Z,51520
2019-04-19T11:28:05.488Z,55424
2019-04-19T11:29:18.308Z,56608
2019-04-19T11:30:31.366Z,54912
2019-04-19T11:31:44.053Z,52832
2019-04-19T11:32:55.452Z,54464
2019-04-19T11:34:07.292Z,57248
2019-04-19T11:35:19.691Z,59680
2019-04-19T11:36:31.684Z,59840
2019-04-19T11:37:42.620Z,61760
2019-04-19T11:38:54.639Z,59104
2019-04-19T11:40:06.921Z,59040
2019-04-19T11:41:18.861Z,60032
2019-04-19T11:42:30.940Z,58784
2019-04-19T11:43:43.239Z,59616
2019-04-19T11:44:54.331Z,60384
2019-04-19T11:46:06.187Z,61824
2019-04-19T11:47:19.458Z,63584
2019-04-19T11:48:35.198Z,65120
2019-04-19T11:49:51.852Z,63552
2019-04-19T11:51:03.645Z,65280
2019-04-19T11:52:19.872Z,67136
2019-04-19T11:53:30.214Z,65440
2019-04-19T11:54:42.136Z,64128
2019-04-19T11:55:51.689Z,60832
2019-04-19T11:57:14.320Z,58208
2019-04-19T11:58:26.343Z,57760
2019-04-19T11:59:59.336Z,56672
2019-04-19T12:01:14.120Z,57984
2019-04-19T12:02:31.099Z,56512
2019-04-19T12:03:46.288Z,58080
2019-04-19T12:04:57.989Z,62880
2019-04-19T12:06:22.838Z,68608
2019-04-19T12:07:36.674Z,72672
2019-04-19T12:08:54.265Z,75136
2019-04-19T12:10:06.067Z,76256
2019-04-19T12:11:17.940Z,75776
2019-04-19T12:12:30.811Z,74144
2019-04-19T12:13:46.468Z,72448
2019-04-19T12:14:58.209Z,74816
2019-04-19T12:16:10.981Z,75360
2019-04-19T12:17:23.278Z,79872
2019-04-19T12:18:33.917Z,77248
2019-04-19T12:20:09.576Z,77952
2019-04-19T12:21:21.372Z,79232
2019-04-19T12:22:33.388Z,77152
2019-04-19T12:23:44.538Z,77472
2019-04-19T12:24:59.914Z,81696
2019-04-19T12:26:11.793Z,80736
2019-04-19T12:27:23.737Z,80096
2019-04-19T12:28:35.624Z,79680
2019-04-19T12:29:58.936Z,76320
2019-04-19T12:31:09.896Z,78496
2019-04-19T12:32:21.832Z,80032
2019-04-19T12:33:35.450Z,79552
2019-04-19T12:34:46.619Z,80800
2019-04-19T12:35:59.118Z,81984
2019-04-19T12:37:09.600Z,84000
2019-04-19T12:38:22.512Z,79904
2019-04-19T12:39:35.268Z,82880
2019-04-19T12:40:48.144Z,76992
2019-04-19T12:42:00.410Z,78880
2019-04-19T12:43:12.523Z,77056
2019-04-19T12:44:26.929Z,76352
2019-04-19T12:45:38.167Z,75296
2019-04-19T12:46:49.175Z,76768
2019-04-19T12:48:00.954Z,72832
2019-04-19T12:49:12.238Z,79456
2019-04-19T12:50:24.638Z,81216
2019-04-19T12:51:36.737Z,82848
2019-04-19T12:52:48.883Z,87232
2019-04-19T12:54:02.082Z,90272
2019-04-19T12:55:15.471Z,89376
2019-04-19T12:56:27.343Z,87776
2019-04-19T12:57:39.218Z,88576
2019-04-19T12:58:53.879Z,93728
2019-04-19T13:00:05.591Z,88544
2019-04-19T13:01:17.730Z,89088
2019-04-19T13:02:29.530Z,89632
2019-04-19T13:03:42.263Z,87872
2019-04-19T13:04:53.992Z,92128
2019-04-19T13:06:07.204Z,83744
2019-04-19T13:07:18.003Z,86656
2019-04-19T13:08:29.289Z,87456
2019-04-19T13:09:42.311Z,90912
2019-04-19T13:10:54.369Z,91616
2019-04-19T13:12:05.853Z,85408
2019-04-19T13:13:18.414Z,92384
2019-04-19T13:14:30.374Z,88096
2019-04-19T13:15:42.953Z,91360
2019-04-19T13:16:57.912Z,89600
2019-04-19T13:18:09.757Z,90528
2019-04-19T13:19:23.157Z,87552
2019-04-19T13:20:43.936Z,92736
2019-04-19T13:21:56.360Z,99232
2019-04-19T13:23:08.363Z,91136
2019-04-19T13:24:18.703Z,88736
2019-04-19T13:25:31.727Z,91616
2019-04-19T13:26:45.156Z,92960
2019-04-19T13:28:07.894Z,90784
2019-04-19T13:29:20.153Z,87680
2019-04-19T13:30:59.636Z,95616
2019-04-19T13:32:14.084Z,96640
2019-04-19T13:33:26.544Z,95040
2019-04-19T13:34:39.395Z,97984
2019-04-19T13:35:51.297Z,94304
2019-04-19T13:37:03.159Z,99360
2019-04-19T13:38:15.176Z,97120
2019-04-19T13:39:26.263Z,93504
2019-04-19T13:40:38.352Z,95072
2019-04-19T13:41:52.504Z,91584
2019-04-19T13:43:08.948Z,92032
2019-04-19T13:44:20.734Z,96416
2019-04-19T13:45:42.733Z,98976
2019-04-19T13:46:56.187Z,92256
2019-04-19T13:48:07.549Z,97024
2019-04-19T13:49:19.456Z,86784
2019-04-19T13:50:48.007Z,93600
2019-04-19T13:52:00.860Z,91392
2019-04-19T13:53:13.257Z,101568
2019-04-19T13:54:23.207Z,87040
2019-04-19T13:55:35.165Z,92640
2019-04-19T13:56:51.057Z,98752
2019-04-19T13:58:02.524Z,90816
2019-04-19T13:59:13.187Z,92000
2019-04-19T14:00:26.909Z,97152
2019-04-19T14:01:38.983Z,91456
2019-04-19T14:02:51.814Z,94016
2019-04-19T14:04:03.641Z,93536
2019-04-19T14:05:15.620Z,96096
2019-04-19T14:06:28.486Z,93696
2019-04-19T14:07:41.065Z,99680
2019-04-19T14:08:53.713Z,100096
2019-04-19T14:10:07.660Z,108480
2019-04-19T14:11:19.621Z,98464
2019-04-19T14:12:31.485Z,101888
2019-04-19T14:13:49.020Z,90208
2019-04-19T14:15:05.235Z,101824
2019-04-19T14:16:17.121Z,89664
2019-04-19T14:17:27.450Z,92320
2019-04-19T14:18:40.569Z,102400
2019-04-19T14:19:52.548Z,97056
2019-04-19T14:21:03.696Z,101408
2019-04-19T14:22:15.470Z,98336
2019-04-19T14:23:28.132Z,97120
2019-04-19T14:24:40.358Z,98944
2019-04-19T14:25:51.826Z,99328
2019-04-19T14:27:09.228Z,92832
2019-04-19T14:28:21.092Z,91392
2019-04-19T14:29:32.956Z,102944
2019-04-19T14:30:45.116Z,95520
2019-04-19T14:31:57.015Z,96000
2019-04-19T14:33:08.455Z,90592
2019-04-19T14:34:19.611Z,93888
2019-04-19T14:35:32.443Z,92448
2019-04-19T14:36:44.645Z,90208
2019-04-19T14:37:55.326Z,94240
2019-04-19T14:39:09.103Z,96352
2019-04-19T14:40:21.431Z,105248
2019-04-19T14:41:33.949Z,95008
2019-04-19T14:42:46.394Z,89088
2019-04-19T14:43:57.823Z,86528
2019-04-19T14:45:10.369Z,88672
2019-04-19T14:46:22.969Z,95840
2019-04-19T14:47:34.800Z,92352
2019-04-19T14:48:51.482Z,83360
2019-04-19T14:50:05.041Z,86016
2019-04-19T14:51:37.135Z,84832
2019-04-19T14:52:53.825Z,100384
2019-04-19T14:54:06.694Z,73024
2019-04-19T14:55:18.566Z,62688
2019-04-19T14:56:29.252Z,65376
2019-04-19T14:57:43.050Z,94368
2019-04-19T14:58:54.087Z,96064
2019-04-19T15:00:05.022Z,90176
2019-04-19T15:01:17.469Z,86784
2019-04-19T15:02:29.099Z,81120
2019-04-19T15:03:39.407Z,89472
2019-04-19T15:04:53.697Z,86048
2019-04-19T15:06:06.150Z,91104
2019-04-19T15:07:16.937Z,85216
2019-04-19T15:08:31.017Z,88800
2019-04-19T15:09:46.156Z,88000
2019-04-19T15:10:57.948Z,82336
2019-04-19T15:12:09.214Z,88480
2019-04-19T15:13:23.334Z,92192
2019-04-19T15:14:34.538Z,87904
2019-04-19T15:15:46.262Z,84512
2019-04-19T15:16:57.526Z,92640
2019-04-19T15:18:09.348Z,77856
2019-04-19T15:19:21.411Z,86624
2019-04-19T15:20:32.373Z,78208
2019-04-19T15:21:43.918Z,87936
2019-04-19T15:22:56.008Z,92928
2019-04-19T15:24:08.577Z,81536
2019-04-19T15:25:22.054Z,82464
2019-04-19T15:26:34.484Z,77120
2019-04-19T15:27:47.242Z,83840
2019-04-19T15:28:58.857Z,82176
2019-04-19T15:30:10.705Z,85472
2019-04-19T15:31:23.965Z,79744
2019-04-19T15:32:36.231Z,78816
2019-04-19T15:33:48.486Z,86720
2019-04-19T15:35:01.272Z,78976
2019-04-19T15:36:13.495Z,86272
2019-04-19T15:37:25.646Z,77120
2019-04-19T15:38:37.683Z,80960
2019-04-19T15:39:49.530Z,83264
2019-04-19T15:41:01.800Z,57472
2019-04-19T15:42:14.053Z,55968
2019-04-19T15:43:25.468Z,86784
2019-04-19T15:44:37.334Z,82528
2019-04-19T15:45:49.646Z,84768
2019-04-19T15:47:03.381Z,79872
2019-04-19T15:48:37.517Z,75424
2019-04-19T15:50:00.275Z,68480
2019-04-19T15:51:40.727Z,81312
2019-04-19T15:52:56.207Z,70496
2019-04-19T15:54:08.168Z,78272
2019-04-19T15:55:20.313Z,73632
2019-04-19T15:56:32.546Z,76608
2019-04-19T15:57:44.276Z,74176
2019-04-19T15:58:56.839Z,70624
2019-04-19T16:00:07.644Z,68192
2019-04-19T16:01:19.738Z,71008
2019-04-19T16:02:31.864Z,69248
2019-04-19T16:03:43.862Z,69792
2019-04-19T16:04:55.674Z,65376
2019-04-19T16:06:07.738Z,63232
2019-04-19T16:07:19.786Z,64192
2019-04-19T16:08:32.322Z,60192
2019-04-19T16:09:45.186Z,61056
2019-04-19T16:10:55.834Z,56096
2019-04-19T16:12:08.373Z,63104
2019-04-19T16:13:20.382Z,59264
2019-04-19T16:14:32.533Z,66784
2019-04-19T16:15:44.729Z,63264
2019-04-19T16:16:57.706Z,60960
2019-04-19T16:18:10.526Z,57248
2019-04-19T16:19:22.677Z,65152
2019-04-19T16:20:35.450Z,59456
2019-04-19T16:22:04.210Z,58816
2019-04-19T16:23:18.667Z,54272
2019-04-19T16:24:29.707Z,56384
2019-04-19T16:25:42.317Z,53376
2019-04-19T16:26:57.448Z,54528
2019-04-19T16:28:09.790Z,52960
2019-04-19T16:29:54.721Z,53632
2019-04-19T16:31:08.897Z,51168
2019-04-19T16:32:21.578Z,53792
2019-04-19T16:33:34.021Z,50016
2019-04-19T16:34:43.554Z,51840
2019-04-19T16:35:56.814Z,50528
2019-04-19T16:37:08.512Z,48096
2019-04-19T16:38:19.836Z,49760
2019-04-19T16:39:35.751Z,47936
2019-04-19T16:40:46.301Z,48064
2019-04-19T16:41:56.109Z,46112
2019-04-19T16:43:07.955Z,48960
2019-04-19T16:44:20.196Z,47264
2019-04-19T16:45:32.545Z,46304
2019-04-19T16:46:45.336Z,44480
2019-04-19T16:47:57.741Z,43936
2019-04-19T16:49:09.014Z,43840
2019-04-19T16:50:22.811Z,40384
2019-04-19T16:51:59.253Z,39424
2019-04-19T16:53:16.003Z,39136
2019-04-19T16:54:25.941Z,39776
2019-04-19T16:55:39.222Z,39520
2019-04-19T16:56:51.452Z,38368
2019-04-19T16:58:21.106Z,37152
2019-04-19T16:59:34.181Z,36480
2019-04-19T17:00:46.843Z,34304
2019-04-19T17:01:57.464Z,36224
2019-04-19T17:03:09.794Z,35008
2019-04-19T17:04:24.661Z,34976
2019-04-19T17:05:37.131Z,33600
2019-04-19T17:06:49.137Z,31520
2019-04-19T17:08:01.489Z,30016
2019-04-19T17:09:13.439Z,28256
2019-04-19T17:10:29.198Z,27616
2019-04-19T17:11:41.902Z,27840
2019-04-19T17:12:53.314Z,25856
2019-04-19T17:14:05.221Z,26816
2019-04-19T17:15:17.321Z,24192
2019-04-19T17:16:29.359Z,23968
2019-04-19T17:17:44.540Z,22688
2019-04-19T17:18:57.137Z,21696
2019-04-19T17:20:09.162Z,19264
2019-04-19T17:21:19.415Z,20160
2019-04-19T17:22:34.855Z,19872
2019-04-19T17:23:45.359Z,19360
2019-04-19T17:24:57.453Z,16992
2019-04-19T17:26:10.838Z,12320
2019-04-19T17:27:32.671Z,13856
2019-04-19T17:28:46.503Z,14688
2019-04-19T17:29:57.192Z,13344
2019-04-19T17:31:08.748Z,13056
2019-04-19T17:32:20.491Z,12288
2019-04-19T17:33:32.846Z,10368
2019-04-19T17:34:45.001Z,10368
2019-04-19T17:35:57.543Z,8640
2019-04-19T17:37:09.184Z,8800
2019-04-19T17:38:51.962Z,7832
2019-04-19T17:40:07.128Z,7720
2019-04-19T17:41:18.566Z,6724
2019-04-19T17:42:30.881Z,4800
2019-04-19T17:43:43.442Z,3564
2019-04-19T17:44:55.926Z,2644
2019-04-19T17:46:06.785Z,2372
2019-04-19T17:47:36.196Z,2196
2019-04-19T17:48:53.044Z,2040
2019-04-19T17:50:04.760Z,1912
2019-04-19T17:51:16.163Z,1788
2019-04-19T17:52:40.704Z,1652
2019-04-19T17:53:58.757Z,1528
2019-04-19T17:55:49.757Z,1436
2019-04-19T17:57:05.391Z,1384
2019-04-19T17:58:17.617Z,1204
2019-04-19T17:59:30.433Z,1076
2019-04-19T18:00:42.385Z,988
2019-04-19T18:01:53.448Z,908
2019-04-19T18:03:04.946Z,832
2019-04-19T18:04:19.899Z,764
2019-04-19T18:05:32.203Z,696
2019-04-19T18:06:56.164Z,628
2019-04-19T18:08:24.378Z,556
2019-04-19T18:09:53.930Z,488
2019-04-19T18:11:32.278Z,424
2019-04-19T18:12:47.592Z,376
2019-04-19T18:13:59.641Z,332
2019-04-19T18:15:11.776Z,300
2019-04-19T18:16:23.039Z,260
2019-04-19T18:17:37.510Z,232
2019-04-19T18:19:01.947Z,196
2019-04-19T18:20:26.906Z,164
2019-04-19T18:21:48.301Z,140
2019-04-19T18:23:45.429Z,112
2019-04-19T18:25:14.173Z,88
2019-04-19T18:26:39.744Z,72
2019-04-19T18:28:12.417Z,60
2019-04-19T18:29:35.910Z,48
2019-04-19T18:31:02.376Z,36
2019-04-19T18:32:18.682Z,28
2019-04-19T18:33:35.864Z,28
2019-04-19T18:34:51.907Z,20
2019-04-19T18:36:25.546Z,16
2019-04-19T18:37:49.211Z,12
2019-04-19T18:39:01.945Z,12
2019-04-19T18:40:15.808Z,8
2019-04-19T18:41:27.468Z,8
2019-04-19T18:43:24.374Z,8
2019-04-19T18:45:09.048Z,4
2019-04-19T18:46:35.029Z,4
2019-04-19T18:47:47.595Z,0
2019-04-19T18:49:00.240Z,4
2019-04-19T18:50:12.512Z,0
2019-04-19T18:51:49.786Z,4
2019-04-19T18:53:44.970Z,0
2019-04-19T18:55:43.876Z,0
2019-04-19T18:57:12.077Z,0
2019-04-19T18:58:40.914Z,0
2019-04-19T19:00:06.041Z,0
2019-04-19T19:01:42.682Z,0
2019-04-19T19:03:09.400Z,0
2019-04-19T19:04:34.778Z,0
2019-04-19T19:06:07.711Z,0
2019-04-19T19:07:34.690Z,0
2019-04-19T19:09:14.472Z,0
2019-04-19T19:10:58.862Z,0
2019-04-19T19:12:24.337Z,0
2019-04-19T19:13:45.642Z,0
2019-04-19T19:15:10.158Z,0
2019-04-19T19:16:38.494Z,0
2019-04-19T19:18:05.834Z,0
2019-04-19T19:19:40.261Z,0
2019-04-19T19:21:12.541Z,0
2019-04-19T19:23:19.856Z,0
2019-04-19T19:25:49.670Z,0
2019-04-19T19:27:36.035Z,0
2019-04-19T19:28:49.762Z,0
2019-04-19T19:29:59.342Z,0
2019-04-19T19:31:11.525Z,0
2019-04-19T19:32:27.557Z,0
2019-04-19T19:33:54.630Z,0
2019-04-19T19:35:27.061Z,0
2019-04-19T19:36:55.459Z,0
2019-04-19T19:38:30.782Z,0
2019-04-19T19:43:41.985Z,0
2019-04-19T19:46:30.655Z,0
2019-04-19T19:50:29.195Z,0
2019-04-19T19:53:57.948Z,0
2019-04-19T19:57:43.542Z,0
2019-04-19T19:59:58.871Z,0
2019-04-19T20:02:25.340Z,0
2019-04-19T20:04:02.362Z,0
2019-04-19T20:05:36.353Z,0
2019-04-19T20:07:19.529Z,0
2019-04-19T20:08:52.711Z,0
2019-04-19T20:10:25.833Z,0
2019-04-19T20:11:50.324Z,0
2019-04-19T20:13:21.993Z,0
2019-04-19T20:14:50.865Z,0
2019-04-19T20:16:29.655Z,0
2019-04-19T20:18:01.775Z,0
2019-04-19T20:19:25.813Z,0
2019-04-19T20:20:48.172Z,0
2019-04-19T20:22:15.639Z,0
2019-04-19T20:24:07.909Z,0
2019-04-19T20:26:27.535Z,0
2019-04-19T20:28:02.869Z,0
2019-04-19T20:29:35.029Z,0
2019-04-19T20:31:00.364Z,0
2019-04-19T20:32:26.631Z,0
2019-04-19T20:34:00.246Z,0
2019-04-19T20:35:29.846Z,0
2019-04-19T20:36:49.457Z,0
2019-04-19T20:38:19.960Z,0
2019-04-19T20:39:43.739Z,0
2019-04-19T20:41:12.835Z,0
2019-04-19T20:43:45.725Z,0
2019-04-19T20:45:51.115Z,0
2019-04-19T20:47:25.869Z,0
2019-04-19T20:48:45.690Z,0
2019-04-19T20:50:57.811Z,0
2019-04-19T20:53:21.391Z,0
2019-04-19T20:56:29.147Z,0
2019-04-19T20:58:56.258Z,0
2019-04-19T21:00:12.708Z,0
2019-04-19T21:01:26.504Z,0
2019-04-19T21:02:47.737Z,0
2019-04-19T21:04:09.678Z,0
2019-04-19T21:05:41.221Z,0
2019-04-19T21:07:11.663Z,0
2019-04-19T21:08:46.330Z,0
2019-04-19T21:10:16.728Z,0
2019-04-19T21:11:48.075Z,0
2019-04-19T21:13:21.869Z,0
2019-04-19T21:14:48.705Z,0
2019-04-19T21:16:02.699Z,0
2019-04-19T21:17:18.574Z,0
2019-04-19T21:18:36.126Z,0
2019-04-19T21:19:56.461Z,0
2019-04-19T21:21:22.656Z,0
2019-04-19T21:22:42.469Z,0
2019-04-19T21:24:13.807Z,0
2019-04-19T21:25:58.897Z,0
2019-04-19T21:27:35.669Z,0
2019-04-19T21:29:03.777Z,0
2019-04-19T21:30:20.827Z,0
2019-04-19T21:31:59.174Z,0
2019-04-19T21:33:22.967Z,0
2019-04-19T21:34:43.895Z,0
2019-04-19T21:36:13.720Z,0
2019-04-19T21:37:49.366Z,0
2019-04-19T21:39:20.101Z,0
2019-04-19T21:40:48.554Z,0
2019-04-19T21:42:13.652Z,0
2019-04-19T21:43:44.760Z,0
2019-04-19T21:45:09.698Z,0
2019-04-19T21:46:36.412Z,0
2019-04-19T21:48:02.990Z,0
2019-04-19T21:49:26.658Z,0
2019-04-19T21:50:54.019Z,0
2019-04-19T21:52:27.278Z,0
2019-04-19T21:53:54.459Z,0
2019-04-19T21:55:44.551Z,0
2019-04-19T21:57:08.886Z,0
2019-04-19T21:58:28.001Z,0
2019-04-19T21:59:46.618Z,0
2019-04-19T22:01:21.093Z,0
2019-04-19T22:02:53.387Z,0
2019-04-19T22:04:19.207Z,0
2019-04-19T22:05:41.039Z,0
2019-04-19T22:07:10.976Z,0
2019-04-19T22:08:42.158Z,0
2019-04-19T22:10:07.514Z,0
2019-04-19T22:11:20.411Z,0
2019-04-19T22:12:32.770Z,0
2019-04-19T22:13:56.311Z,0
2019-04-19T22:15:19.453Z,0
2019-04-19T22:16:48.565Z,0
2019-04-19T22:18:13.296Z,0
2019-04-19T22:19:41.891Z,0
2019-04-19T22:21:10.510Z,0
2019-04-19T22:22:37.234Z,0
2019-04-19T22:24:00.439Z,0
2019-04-19T22:25:56.690Z,0
2019-04-19T22:27:29.803Z,0
2019-04-19T22:28:41.886Z,0
2019-04-19T22:29:53.843Z,0